Time;durP1;ratioP1;P1;durP2;ratioP2;P2;SDS_P1;SDS_P2;PMS_P1;PMS_P2;Temp;Humidity;BMP_temperature;BMP_pressure;BME280_temperature;BME280_humidity;BME280_pressure;Samples;Min_cycle;Max_cycle;Signal;HPM_P1;HPM_P2
2022/12/28 00:02:25;;;;;;;6.77;3.50;;;;;;;10.05;nan;102508.97;4854121;29;20454;-91
2022/12/28 00:04:52;;;;;;;6.10;2.80;;;;;;;10.03;nan;102497.34;4896473;29;20496;-90
2022/12/28 00:07:27;;;;;;;8.80;3.10;;;;;;;9.95;nan;102487.16;4869380;29;20446;-90
2022/12/28 00:09:55;;;;;;;5.67;3.10;;;;;;;9.95;nan;102491.78;4863300;29;20459;-90
2022/12/28 00:12:34;;;;;;;4.37;2.43;;;;;;;9.94;nan;102495.50;4889620;29;20450;-90
2022/12/28 00:15:02;;;;;;;6.10;2.90;;;;;;;9.91;nan;102496.66;4877800;29;20576;-91
2022/12/28 00:17:30;;;;;;;10.03;2.60;;;;;;;9.85;nan;102497.22;4869272;29;20454;-90
2022/12/28 00:20:05;;;;;;;5.60;2.83;;;;;;;9.84;nan;102489.19;4856724;29;20469;-90
2022/12/28 00:22:35;;;;;;;6.83;3.80;;;;;;;9.83;nan;102484.72;4877286;29;20818;-90
2022/12/28 00:25:07;;;;;;;8.50;3.17;;;;;;;9.77;nan;102474.41;4853678;29;20497;-89
2022/12/28 00:27:35;;;;;;;12.80;3.70;;;;;;;9.74;nan;102463.78;4874180;29;20501;-90
2022/12/28 00:30:03;;;;;;;14.73;3.97;;;;;;;9.83;nan;102487.47;4894074;29;20804;-90
2022/12/28 00:32:37;;;;;;;16.77;4.23;;;;;;;9.81;nan;102478.56;4868546;29;20450;-90
2022/12/28 00:35:08;;;;;;;6.23;3.37;;;;;;;9.81;nan;102464.94;4876755;29;20952;-90
2022/12/28 00:37:50;;;;;;;8.13;3.90;;;;;;;9.79;nan;102470.53;4866302;29;20827;-91
2022/12/28 00:40:20;;;;;;;10.33;3.17;;;;;;;9.73;nan;102459.31;4895334;29;20449;-90
2022/12/28 00:43:00;;;;;;;7.83;3.00;;;;;;;9.74;nan;102475.56;4901547;29;20484;-90
2022/12/28 00:45:32;;;;;;;14.53;3.93;;;;;;;9.70;nan;102466.78;4902514;29;20449;-89
2022/12/28 00:48:01;;;;;;;7.90;4.17;;;;;;;9.69;nan;102467.78;4887208;29;20464;-89
2022/12/28 00:50:33;;;;;;;9.97;3.27;;;;;;;9.68;nan;102471.53;4860303;29;20487;-90
2022/12/28 00:53:02;;;;;;;12.20;3.10;;;;;;;9.67;nan;102471.69;4880652;29;20443;-90
2022/12/28 00:55:35;;;;;;;12.83;3.87;;;;;;;9.64;nan;102464.63;4901621;29;20483;-90
2022/12/28 00:58:06;;;;;;;12.70;3.40;;;;;;;9.60;nan;102452.31;4880215;29;20454;-89
2022/12/28 01:00:37;;;;;;;7.90;3.60;;;;;;;9.61;nan;102462.22;4870221;29;20447;-90
2022/12/28 01:03:08;;;;;;;6.20;3.40;;;;;;;9.61;nan;102456.75;4886543;29;20538;-90
2022/12/28 01:05:49;;;;;;;6.57;3.33;;;;;;;9.60;nan;102459.63;4901595;29;20449;-90
2022/12/28 01:08:17;;;;;;;13.47;4.30;;;;;;;9.52;nan;102438.50;4886963;29;20444;-90
2022/12/28 01:10:44;;;;;;;8.77;3.30;;;;;;;9.54;nan;102441.97;4868586;29;20461;-91
2022/12/28 01:13:13;;;;;;;7.40;4.23;;;;;;;9.57;nan;102446.28;4858961;29;20866;-90
2022/12/28 01:15:43;;;;;;;6.73;2.83;;;;;;;9.53;nan;102444.84;4882234;29;20485;-90
2022/12/28 01:18:21;;;;;;;8.93;3.00;;;;;;;9.49;nan;102447.00;4875413;29;20975;-92
2022/12/28 01:20:55;;;;;;;10.00;3.40;;;;;;;9.47;nan;102432.63;4864983;29;20832;-90
2022/12/28 01:23:33;;;;;;;11.70;3.60;;;;;;;9.41;nan;102435.09;4864399;29;20486;-90
2022/12/28 01:26:04;;;;;;;8.90;3.30;;;;;;;9.37;nan;102428.19;4879716;29;20802;-90
2022/12/28 01:28:36;;;;;;;5.60;3.00;;;;;;;9.35;nan;102431.94;4879974;29;20439;-90
2022/12/28 01:31:11;;;;;;;10.43;3.07;;;;;;;9.32;nan;102425.88;4865170;29;20459;-90
2022/12/28 01:33:41;;;;;;;6.57;3.33;;;;;;;9.33;nan;102422.16;4809193;29;20700;-89
2022/12/28 01:36:14;;;;;;;3.10;2.20;;;;;;;9.32;nan;102421.28;4796677;29;20455;-90
2022/12/28 01:38:42;;;;;;;5.70;3.37;;;;;;;9.29;nan;102416.13;4789181;29;20455;-89
2022/12/28 01:41:13;;;;;;;4.90;2.57;;;;;;;9.25;nan;102402.91;4790641;29;20463;-90
2022/12/28 01:43:45;;;;;;;9.80;3.20;;;;;;;9.24;nan;102398.47;4787064;29;20479;-90
2022/12/28 01:46:33;;;;;;;6.60;2.57;;;;;;;9.27;nan;102409.94;4804282;29;20597;-89
2022/12/28 01:49:35;;;;;;;4.70;2.50;;;;;;;9.23;nan;102399.50;4805162;29;20473;-89
2022/12/28 01:52:31;;;;;;;6.83;2.20;;;;;;;9.19;nan;102408.97;4814555;29;20464;-90
2022/12/28 01:55:27;;;;;;;7.20;2.60;;;;;;;9.12;nan;102405.06;4856302;29;20472;-90
2022/12/28 01:58:00;;;;;;;5.50;3.00;;;;;;;9.08;nan;102398.19;4853541;29;20457;-89
2022/12/28 02:00:28;;;;;;;4.10;2.30;;;;;;;9.08;nan;102395.44;4868153;29;20956;-90
2022/12/28 02:03:01;;;;;;;10.70;3.20;;;;;;;9.07;nan;102399.19;4852076;29;20480;-89
2022/12/28 02:05:34;;;;;;;5.63;2.60;;;;;;;9.06;nan;102392.88;4852245;29;20550;-89
2022/12/28 02:08:22;;;;;;;8.50;3.10;;;;;;;9.04;nan;102400.34;4896260;29;20957;-89
2022/12/28 02:10:52;;;;;;;5.07;2.53;;;;;;;9.03;nan;102397.78;4881653;29;20457;-89
2022/12/28 02:13:21;;;;;;;8.70;2.50;;;;;;;9.03;nan;102403.22;4881098;29;20454;-88
2022/12/28 02:15:49;;;;;;;4.50;2.50;;;;;;;9.02;nan;102402.38;4850512;29;20481;-91
2022/12/28 02:18:18;;;;;;;5.33;2.90;;;;;;;8.94;nan;102383.13;4882385;29;20839;-90
2022/12/28 02:21:20;;;;;;;7.27;2.90;;;;;;;8.99;nan;102391.72;4855799;29;20451;-90
2022/12/28 02:24:06;;;;;;;6.73;3.13;;;;;;;8.95;nan;102396.59;4879486;29;20485;-88
2022/12/28 02:26:36;;;;;;;5.00;2.90;;;;;;;8.93;nan;102397.75;4881885;29;20945;-89
2022/12/28 02:29:18;;;;;;;6.60;2.70;;;;;;;8.92;nan;102390.56;4882386;29;20450;-89
2022/12/28 02:32:13;;;;;;;8.20;2.90;;;;;;;8.92;nan;102396.88;4882027;29;20464;-89
2022/12/28 02:35:08;;;;;;;4.43;2.50;;;;;;;8.89;nan;102380.81;4912633;29;20976;-89
2022/12/28 02:37:51;;;;;;;5.17;2.70;;;;;;;8.71;nan;102387.97;4875958;29;20495;-90
2022/12/28 02:40:33;;;;;;;10.70;2.70;;;;;;;8.61;nan;102384.38;4882473;29;20445;-90
2022/12/28 02:43:03;;;;;;;3.83;1.93;;;;;;;8.63;nan;102396.00;4868668;29;20476;-90
2022/12/28 02:51:30;;;;;;;4.90;1.83;;;;;;;8.63;nan;102390.56;4884609;29;20458;-90
2022/12/28 02:57:46;;;;;;;3.23;1.87;;;;;;;8.53;nan;102373.31;4885169;29;20449;-91
2022/12/28 03:00:18;;;;;;;5.63;1.90;;;;;;;8.51;nan;102375.31;4885094;29;20445;-90
2022/12/28 03:03:24;;;;;;;4.50;1.80;;;;;;;8.49;nan;102382.75;4870786;29;20457;-90
2022/12/28 03:09:33;;;;;;;7.97;1.83;;;;;;;8.43;nan;102375.16;4888129;29;20453;-90
2022/12/28 03:12:08;;;;;;;4.60;1.77;;;;;;;8.46;nan;102383.06;4870260;29;20456;-89
2022/12/28 03:14:47;;;;;;;7.20;1.83;;;;;;;8.46;nan;102381.19;4855356;29;20456;-90
2022/12/28 03:32:05;;;;;;;4.83;1.67;;;;;;;8.44;nan;102368.72;4919177;29;20457;-90
2022/12/28 03:34:41;;;;;;;3.80;1.77;;;;;;;8.45;nan;102371.31;4870309;29;20458;-89
2022/12/28 03:37:58;;;;;;;2.87;1.37;;;;;;;8.43;nan;102370.56;4868730;29;20457;-89
2022/12/28 03:40:48;;;;;;;6.00;2.20;;;;;;;8.42;nan;102365.28;4899795;29;20824;-90
2022/12/28 03:43:39;;;;;;;8.93;2.20;;;;;;;8.40;nan;102359.09;4909471;29;20879;-89
2022/12/28 03:46:24;;;;;;;3.87;1.80;;;;;;;8.37;nan;102359.38;4852766;29;20451;-89
2022/12/28 03:48:53;;;;;;;6.83;2.10;;;;;;;8.38;nan;102363.81;4867142;29;20443;-89
2022/12/28 03:51:23;;;;;;;8.00;2.00;;;;;;;8.35;nan;102356.78;4850722;29;20462;-90
2022/12/28 03:53:51;;;;;;;6.53;2.20;;;;;;;8.36;nan;102358.50;4861544;29;20455;-90
2022/12/28 03:56:21;;;;;;;3.37;1.97;;;;;;;8.40;nan;102353.66;4869371;29;20442;-90
2022/12/28 03:59:07;;;;;;;3.50;2.00;;;;;;;8.35;nan;102348.59;4853359;29;20515;-90
2022/12/28 04:01:35;;;;;;;3.53;1.93;;;;;;;8.28;nan;102347.41;4855204;29;20550;-90
2022/12/28 04:04:07;;;;;;;2.93;1.30;;;;;;;8.30;nan;102361.75;4855022;29;20509;-90
2022/12/28 04:06:42;;;;;;;3.60;1.50;;;;;;;8.23;nan;102353.28;4890210;29;20406;-91
2022/12/28 04:09:10;;;;;;;2.73;1.50;;;;;;;8.20;nan;102356.28;4908586;29;20437;-88
2022/12/28 04:11:39;;;;;;;4.53;1.40;;;;;;;8.12;nan;102356.09;4908894;29;20523;-91
2022/12/28 04:14:09;;;;;;;4.33;1.30;;;;;;;8.06;nan;102342.19;4857114;29;20458;-90
2022/12/28 04:16:41;;;;;;;3.40;1.50;;;;;;;8.08;nan;102338.31;4850775;29;20489;-90
2022/12/28 04:19:19;;;;;;;2.00;0.90;;;;;;;8.09;nan;102353.66;4866486;29;20591;-91
2022/12/28 04:21:48;;;;;;;1.60;0.87;;;;;;;8.03;nan;102342.47;4868630;29;20461;-89
2022/12/28 04:24:24;;;;;;;2.40;1.17;;;;;;;8.04;nan;102353.22;4872021;29;20476;-89
2022/12/28 04:26:52;;;;;;;7.50;1.50;;;;;;;8.03;nan;102353.38;4885585;29;20460;-89
2022/12/28 04:29:21;;;;;;;4.60;1.33;;;;;;;7.88;nan;102340.13;4872068;29;20967;-89
2022/12/28 04:31:49;;;;;;;11.03;1.20;;;;;;;7.96;nan;102350.31;4894312;29;20876;-89
2022/12/28 04:34:17;;;;;;;4.10;1.17;;;;;;;7.96;nan;102361.22;4861339;29;20450;-89
2022/12/28 04:36:46;;;;;;;7.07;2.07;;;;;;;7.96;nan;102362.06;4887705;29;20462;-89
2022/12/28 04:39:17;;;;;;;2.80;1.40;;;;;;;7.99;nan;102358.22;4858818;29;20457;-89
2022/12/28 04:41:51;;;;;;;7.03;1.40;;;;;;;7.95;nan;102352.19;4868834;29;20988;-89
2022/12/28 04:44:19;;;;;;;7.20;2.13;;;;;;;7.93;nan;102347.88;4869199;29;20975;-89
2022/12/28 04:46:49;;;;;;;4.43;1.83;;;;;;;7.99;nan;102363.66;4854579;29;20454;-90
2022/12/28 04:49:17;;;;;;;6.03;1.57;;;;;;;7.93;nan;102348.72;4883620;29;20462;-89
2022/12/28 04:51:46;;;;;;;4.10;1.47;;;;;;;7.88;nan;102352.88;4899376;29;20469;-89
2022/12/28 04:54:15;;;;;;;6.00;1.80;;;;;;;7.87;nan;102353.88;4868450;29;20831;-89
2022/12/28 04:56:43;;;;;;;6.27;1.80;;;;;;;7.91;nan;102360.75;4864757;29;20456;-89
2022/12/28 04:59:11;;;;;;;3.63;2.20;;;;;;;7.92;nan;102351.59;4888930;29;20461;-89
2022/12/28 05:01:38;;;;;;;2.50;1.50;;;;;;;7.89;nan;102340.97;4871808;29;20640;-89
2022/12/28 05:04:12;;;;;;;6.00;2.40;;;;;;;7.92;nan;102341.56;4891411;29;20458;-89
2022/12/28 05:06:46;;;;;;;3.10;1.60;;;;;;;7.96;nan;102353.91;4864913;29;20797;-89
2022/12/28 05:09:14;;;;;;;4.43;1.83;;;;;;;7.93;nan;102354.19;4876822;29;20980;-89
2022/12/28 05:11:54;;;;;;;6.30;2.37;;;;;;;7.96;nan;102348.47;4856689;29;20458;-89
2022/12/28 05:14:23;;;;;;;4.70;2.30;;;;;;;7.96;nan;102353.91;4867566;29;20457;-89
2022/12/28 05:16:52;;;;;;;5.30;1.70;;;;;;;7.96;nan;102342.16;4881993;29;20486;-89
2022/12/28 05:19:21;;;;;;;3.70;1.77;;;;;;;8.02;nan;102351.63;4880749;29;20433;-88
2022/12/28 05:21:58;;;;;;;5.40;1.70;;;;;;;8.01;nan;102348.06;4870268;29;20457;-89
2022/12/28 05:24:26;;;;;;;4.70;1.90;;;;;;;8.04;nan;102350.50;4886055;29;20476;-89
2022/12/28 05:26:55;;;;;;;7.33;2.37;;;;;;;8.08;nan;102354.66;4869935;29;20464;-90
2022/12/28 05:29:29;;;;;;;5.10;2.30;;;;;;;8.06;nan;102343.06;4901400;29;20456;-90
2022/12/28 05:32:05;;;;;;;7.87;2.73;;;;;;;8.08;nan;102346.47;4898366;29;20468;-90
2022/12/28 05:34:35;;;;;;;9.00;3.20;;;;;;;8.14;nan;102356.84;4881454;29;20484;-88
2022/12/28 05:37:09;;;;;;;6.03;4.27;;;;;;;8.09;nan;102342.75;4867787;29;20826;-89
2022/12/28 05:39:47;;;;;;;7.10;3.83;;;;;;;8.14;nan;102356.84;4870199;29;20945;-90
2022/12/28 05:42:25;;;;;;;11.47;4.03;;;;;;;8.18;nan;102354.69;4901061;29;20444;-89
2022/12/28 05:45:07;;;;;;;10.50;5.80;;;;;;;8.16;nan;102349.38;4870265;29;20481;-89
2022/12/28 05:47:44;;;;;;;15.97;7.80;;;;;;;8.21;nan;102368.03;4871007;29;20459;-88
2022/12/28 05:50:12;;;;;;;16.47;9.23;;;;;;;8.17;nan;102356.56;4884416;29;20453;-89
2022/12/28 05:52:46;;;;;;;9.80;5.03;;;;;;;8.18;nan;102363.72;4852153;29;20454;-89
2022/12/28 05:55:26;;;;;;;6.83;2.70;;;;;;;8.21;nan;102373.50;4862722;29;20464;-88
2022/12/28 05:57:54;;;;;;;6.93;3.83;;;;;;;8.14;nan;102365.00;4886096;29;20457;-89
2022/12/28 06:00:25;;;;;;;12.60;5.13;;;;;;;8.10;nan;102363.53;4858477;29;20809;-90
2022/12/28 06:02:54;;;;;;;8.03;3.50;;;;;;;8.12;nan;102375.16;4873987;29;20457;-88
2022/12/28 06:05:23;;;;;;;5.47;3.23;;;;;;;8.09;nan;102369.13;4869214;29;20485;-88
2022/12/28 06:07:59;;;;;;;26.03;17.10;;;;;;;8.07;nan;102372.03;4866794;29;20946;-88
2022/12/28 06:10:28;;;;;;;22.33;12.70;;;;;;;8.00;nan;102370.84;4882379;29;20445;-88
2022/12/28 06:12:59;;;;;;;13.00;4.93;;;;;;;7.97;nan;102371.97;4912548;29;20456;-88
2022/12/28 06:15:26;;;;;;;3.50;1.80;;;;;;;7.93;nan;102373.22;4866571;29;20466;-87
2022/12/28 06:17:54;;;;;;;4.27;2.07;;;;;;;7.92;nan;102367.91;4842838;29;20479;-89
2022/12/28 06:20:22;;;;;;;2.43;1.37;;;;;;;7.93;nan;102375.94;4857894;29;20461;-89
2022/12/28 06:22:51;;;;;;;5.07;2.83;;;;;;;7.91;nan;102371.63;4775519;29;20450;-88
2022/12/28 06:25:19;;;;;;;4.00;2.50;;;;;;;7.86;nan;102369.34;4772541;30;20494;-89
2022/12/28 06:27:48;;;;;;;3.40;1.83;;;;;;;7.91;nan;102380.66;4786327;30;20478;-89
2022/12/28 06:30:16;;;;;;;20.07;13.00;;;;;;;7.83;nan;102368.75;4772123;30;20459;-89
2022/12/28 06:32:44;;;;;;;34.80;18.07;;;;;;;7.87;nan;102367.50;4771726;29;20467;-88
2022/12/28 06:35:13;;;;;;;30.30;18.40;;;;;;;7.90;nan;102378.94;4776157;29;20464;-88
2022/12/28 06:37:49;;;;;;;23.97;11.33;;;;;;;7.88;nan;102372.81;4838612;29;20472;-89
2022/12/28 06:40:24;;;;;;;10.17;4.70;;;;;;;7.92;nan;102376.09;4829808;29;20448;-88
2022/12/28 06:43:20;;;;;;;15.67;5.90;;;;;;;7.92;nan;102376.09;4892758;29;20483;-88
2022/12/28 06:45:55;;;;;;;20.17;11.40;;;;;;;7.95;nan;102381.25;4903894;29;20503;-88
2022/12/28 06:48:30;;;;;;;46.00;22.93;;;;;;;7.90;nan;102370.78;4888003;29;20462;-88
2022/12/28 06:51:00;;;;;;;20.70;11.17;;;;;;;7.91;nan;102371.63;4899237;29;20457;-89
2022/12/28 06:53:30;;;;;;;18.70;11.00;;;;;;;7.85;nan;102372.22;4870275;29;20455;-89
2022/12/28 06:56:03;;;;;;;12.63;4.10;;;;;;;7.88;nan;102385.53;4855364;29;20472;-89
2022/12/28 06:58:30;;;;;;;8.73;2.50;;;;;;;7.84;nan;102384.09;4887700;29;20460;-88
2022/12/28 07:01:18;;;;;;;10.20;2.00;;;;;;;7.88;nan;102394.56;4891512;29;20980;-88
2022/12/28 07:03:46;;;;;;;8.70;2.77;;;;;;;7.83;nan;102379.63;4872865;29;20464;-88
2022/12/28 07:06:18;;;;;;;6.80;2.40;;;;;;;7.79;nan;102384.50;4855392;29;20485;-89
2022/12/28 07:09:00;;;;;;;11.00;3.77;;;;;;;7.70;nan;102374.41;4869328;29;21008;-89
2022/12/28 07:11:28;;;;;;;12.30;4.80;;;;;;;7.71;nan;102375.25;4896296;29;20471;-88
2022/12/28 07:13:57;;;;;;;17.77;4.70;;;;;;;7.68;nan;102381.00;4903601;29;20461;-89
2022/12/28 07:16:27;;;;;;;11.33;6.70;;;;;;;7.71;nan;102380.69;4887279;29;20855;-89
2022/12/28 07:18:55;;;;;;;10.57;5.30;;;;;;;7.68;nan;102386.44;4903852;29;21010;-89
2022/12/28 07:21:50;;;;;;;15.10;6.47;;;;;;;7.62;nan;102388.69;4889072;29;20444;-88
2022/12/28 07:24:26;;;;;;;31.90;12.30;;;;;;;7.53;nan;102397.66;4890964;29;20456;-87
2022/12/28 07:26:55;;;;;;;36.27;14.33;;;;;;;7.54;nan;102396.66;4887807;29;20987;-88
2022/12/28 07:29:32;;;;;;;40.80;13.50;;;;;;;7.55;nan;102392.94;4888281;29;20449;-87
2022/12/28 07:32:00;;;;;;;20.43;8.80;;;;;;;7.57;nan;102396.38;4901646;29;20461;-89
2022/12/28 07:34:30;;;;;;;13.90;6.00;;;;;;;7.48;nan;102394.50;4894654;29;20462;-89
2022/12/28 07:37:04;;;;;;;18.57;8.13;;;;;;;7.40;nan;102391.56;4874568;29;20457;-89
2022/12/28 07:39:32;;;;;;;16.70;7.10;;;;;;;7.44;nan;102386.72;4869063;29;20457;-89
2022/12/28 07:42:05;;;;;;;14.23;7.27;;;;;;;7.42;nan;102386.84;4869778;29;20811;-88
2022/12/28 07:44:33;;;;;;;16.60;8.80;;;;;;;7.41;nan;102387.84;4868993;29;20460;-89
2022/12/28 07:47:04;;;;;;;7.43;3.67;;;;;;;7.42;nan;102383.25;4870478;29;20493;-89
2022/12/28 07:49:41;;;;;;;10.33;2.47;;;;;;;7.50;nan;102395.22;4865342;29;20462;-89
2022/12/28 07:52:13;;;;;;;14.83;1.80;;;;;;;7.49;nan;102393.50;4879254;29;20484;-89
2022/12/28 07:54:43;;;;;;;4.93;1.93;;;;;;;7.46;nan;102392.91;4899859;29;20457;-89
2022/12/28 07:57:18;;;;;;;21.43;2.40;;;;;;;7.51;nan;102396.91;4884995;29;20858;-90
2022/12/28 07:59:47;;;;;;;21.80;2.90;;;;;;;7.50;nan;102395.22;4896610;29;20493;-89
2022/12/28 08:02:16;;;;;;;24.13;8.90;;;;;;;7.50;nan;102395.22;4853608;29;20453;-89
2022/12/28 08:04:53;;;;;;;18.07;5.83;;;;;;;7.49;nan;102389.91;4857870;29;20456;-90
2022/12/28 08:07:21;;;;;;;9.00;2.70;;;;;;;7.54;nan;102391.22;4888075;29;20452;-90
2022/12/28 08:09:50;;;;;;;3.10;1.50;;;;;;;7.51;nan;102388.75;4879544;29;20979;-90
2022/12/28 08:12:26;;;;;;;8.03;2.90;;;;;;;7.54;nan;102395.78;4847666;29;20459;-90
2022/12/28 08:15:02;;;;;;;15.63;2.80;;;;;;;7.54;nan;102396.66;4836349;29;20464;-89
2022/12/28 08:17:35;;;;;;;7.43;2.87;;;;;;;7.51;nan;102396.91;4832377;29;20484;-89
2022/12/28 08:20:27;;;;;;;18.13;7.53;;;;;;;7.55;nan;102398.38;4809885;29;20449;-88
2022/12/28 08:23:03;;;;;;;12.20;4.63;;;;;;;7.58;nan;102406.28;4824649;29;20903;-90
2022/12/28 08:25:39;;;;;;;12.70;3.70;;;;;;;7.61;nan;102408.75;4810475;29;20485;-90
2022/12/28 08:28:13;;;;;;;16.30;3.80;;;;;;;7.65;nan;102405.75;4810119;29;20471;-90
2022/12/28 08:30:48;;;;;;;13.37;4.70;;;;;;;7.63;nan;102404.03;4805535;29;20464;-90
2022/12/28 08:33:16;;;;;;;7.63;3.10;;;;;;;7.69;nan;102413.53;4843477;29;20456;-90
2022/12/28 08:35:49;;;;;;;12.63;3.50;;;;;;;7.73;nan;102406.78;4881867;29;20484;-90
2022/12/28 08:38:51;;;;;;;11.83;3.53;;;;;;;7.81;nan;102411.56;4884401;29;20464;-95
2022/12/28 08:41:36;;;;;;;18.50;6.13;;;;;;;7.87;nan;102408.31;4904785;29;20453;-94
2022/12/28 09:03:48;;;;;;;10.40;4.60;;;;;;;8.73;nan;102415.09;4825625;29;20777;-92
2022/12/28 09:06:47;;;;;;;13.33;7.50;;;;;;;8.86;nan;102418.41;4809614;29;20489;-92
2022/12/28 09:12:45;;;;;;;31.23;10.00;;;;;;;9.12;nan;102414.13;4815405;29;20493;-88
2022/12/28 09:15:28;;;;;;;14.70;6.63;;;;;;;9.30;nan;102411.53;4810139;29;20462;-89
2022/12/28 09:17:55;;;;;;;12.97;5.87;;;;;;;9.36;nan;102424.59;4795693;29;20478;-89
2022/12/28 09:20:23;;;;;;;9.90;4.10;;;;;;;9.46;nan;102417.25;4807826;29;20470;-89
2022/12/28 09:22:52;;;;;;;14.43;4.53;;;;;;;9.55;nan;102421.00;4793954;29;20441;-90
2022/12/28 09:25:20;;;;;;;12.97;6.10;;;;;;;9.69;nan;102421.38;4794293;29;20500;-90
2022/12/28 09:27:57;;;;;;;19.77;8.80;;;;;;;9.82;nan;102433.84;4800425;29;20464;-89
2022/12/28 09:30:27;;;;;;;18.47;7.97;;;;;;;9.94;nan;102444.47;4839630;29;20457;-89
2022/12/28 09:35:58;;;;;;;7.40;3.77;;;;;;;10.19;nan;102442.13;4835414;29;20464;-90
2022/12/28 09:38:27;;;;;;;6.50;3.53;;;;;;;10.31;nan;102446.38;4828564;29;20470;-90
2022/12/28 09:40:59;;;;;;;19.00;3.17;;;;;;;10.47;nan;102449.31;4853056;29;20945;-90
2022/12/28 09:43:31;;;;;;;11.10;2.67;;;;;;;10.67;nan;102458.28;4849619;29;20454;-91
2022/12/28 09:45:59;;;;;;;12.53;3.80;;;;;;;10.71;nan;102441.44;4864998;29;20982;-90
2022/12/28 09:48:29;;;;;;;25.70;14.37;;;;;;;10.94;nan;102455.53;4864591;29;20823;-90
2022/12/28 09:50:57;;;;;;;10.07;4.60;;;;;;;11.02;nan;102441.94;4872237;29;20453;-91
2022/12/28 09:53:33;;;;;;;5.47;2.53;;;;;;;11.35;nan;102458.69;4866843;29;20450;-92
2022/12/28 09:59:41;;;;;;;4.70;2.30;;;;;;;11.75;nan;102450.81;4881254;29;20458;-91
2022/12/28 10:02:31;;;;;;;7.37;2.20;;;;;;;11.99;nan;102454.78;4898234;29;20843;-92
2022/12/28 10:09:04;;;;;;;8.07;2.00;;;;;;;12.42;nan;102449.19;4899256;29;20547;-93
2022/12/28 10:11:43;;;;;;;4.43;1.83;;;;;;;12.57;nan;102441.22;4902565;29;20569;-94
2022/12/28 10:14:50;;;;;;;8.87;2.07;;;;;;;12.80;nan;102449.69;4872091;29;21007;-92
2022/12/28 10:17:18;;;;;;;3.53;1.50;;;;;;;12.94;nan;102434.47;4900665;29;20480;-93
2022/12/28 10:20:01;;;;;;;10.03;2.10;;;;;;;13.08;nan;102429.16;4881580;29;20560;-93
2022/12/28 10:22:54;;;;;;;7.10;1.73;;;;;;;13.38;nan;102451.56;4883073;29;20461;-92
2022/12/28 10:32:37;;;;;;;2.90;1.67;;;;;;;14.05;nan;102444.81;4899735;29;20946;-92
2022/12/28 10:35:45;;;;;;;9.40;1.90;;;;;;;14.25;nan;102444.41;4866998;29;20461;-92
2022/12/28 10:38:46;;;;;;;8.63;3.03;;;;;;;14.44;nan;102444.91;4899367;29;20475;-93
2022/12/28 10:41:32;;;;;;;10.53;2.27;;;;;;;14.61;nan;102442.09;4875353;29;20462;-93
2022/12/28 10:44:32;;;;;;;9.20;3.43;;;;;;;14.79;nan;102434.44;4869171;29;20805;-95
2022/12/28 10:47:34;;;;;;;13.57;3.33;;;;;;;14.98;nan;102435.88;4873469;29;20489;-94
2022/12/28 10:50:57;;;;;;;6.87;2.10;;;;;;;15.14;nan;102435.78;4913648;29;20442;-93
2022/12/28 10:53:27;;;;;;;17.17;3.07;;;;;;;15.25;nan;102416.06;4889759;29;20450;-94
2022/12/28 10:56:52;;;;;;;5.87;2.10;;;;;;;15.50;nan;102425.84;4863959;29;20458;-93
2022/12/28 10:59:26;;;;;;;8.40;2.67;;;;;;;15.59;nan;102418.38;4905928;29;20990;-95
2022/12/28 11:09:46;;;;;;;23.43;6.40;;;;;;;16.17;nan;102427.81;4919255;29;20548;-95
2022/12/28 11:12:46;;;;;;;20.87;8.93;;;;;;;16.27;nan;102417.34;4870886;29;20461;-96
2022/12/28 11:24:10;;;;;;;34.90;14.93;;;;;;;16.66;nan;102417.06;4914740;29;20510;-93
2022/12/28 11:26:45;;;;;;;30.57;14.13;;;;;;;16.78;nan;102414.66;4919636;29;20520;-91
2022/12/28 11:29:38;;;;;;;14.70;6.67;;;;;;;16.90;nan;102407.59;4877761;29;20449;-94
2022/12/28 11:36:00;;;;;;;10.87;3.50;;;;;;;17.21;nan;102394.31;4920741;29;20528;-95
2022/12/28 11:38:44;;;;;;;19.90;7.40;;;;;;;17.23;nan;102364.59;4919854;29;20460;-95
2022/12/28 11:41:42;;;;;;;20.30;9.73;;;;;;;17.43;nan;102391.56;4903907;29;20527;-92
2022/12/28 11:44:40;;;;;;;26.50;11.20;;;;;;;17.52;nan;102380.13;4856174;29;20454;-92
2022/12/28 11:47:31;;;;;;;11.53;4.27;;;;;;;17.56;nan;102375.94;4881501;29;20499;-91
2022/12/28 11:50:35;;;;;;;7.87;3.50;;;;;;;17.75;nan;102379.94;4864805;29;20458;-93
2022/12/28 11:53:18;;;;;;;12.70;6.50;;;;;;;17.76;nan;102378.88;4878446;29;20984;-92
2022/12/28 11:56:05;;;;;;;8.07;3.97;;;;;;;17.78;nan;102367.63;4831580;29;20458;-91
2022/12/28 11:58:57;;;;;;;10.03;2.60;;;;;;;17.89;nan;102376.22;4842093;29;20460;-90
2022/12/28 12:01:45;;;;;;;7.90;3.23;;;;;;;17.94;nan;102362.63;4863878;29;20459;-90
2022/12/28 12:04:30;;;;;;;13.47;4.13;;;;;;;17.92;nan;102353.66;4862130;29;20470;-89
2022/12/28 12:10:32;;;;;;;12.83;4.20;;;;;;;18.08;nan;102351.66;4844069;29;20483;-91
2022/12/28 12:13:26;;;;;;;13.40;5.83;;;;;;;18.21;nan;102357.25;4809963;29;20459;-89
2022/12/28 12:16:04;;;;;;;9.10;2.67;;;;;;;18.28;nan;102349.81;4866004;29;21014;-89
2022/12/28 12:18:55;;;;;;;12.20;2.93;;;;;;;18.32;nan;102337.28;4846037;29;20963;-89
2022/12/28 12:21:34;;;;;;;14.17;2.13;;;;;;;18.41;nan;102336.06;4869352;29;20535;-90
2022/12/28 12:24:17;;;;;;;9.53;1.90;;;;;;;18.52;nan;102342.91;4906145;29;20456;-90
2022/12/28 12:26:53;;;;;;;11.73;3.60;;;;;;;18.53;nan;102322.47;4906817;29;20487;-90
2022/12/28 12:30:03;;;;;;;10.87;4.37;;;;;;;18.68;nan;102325.94;4907334;29;20458;-91
2022/12/28 12:32:45;;;;;;;4.80;2.40;;;;;;;18.74;nan;102324.25;4933030;29;20464;-89
2022/12/28 12:35:20;;;;;;;10.67;2.30;;;;;;;18.84;nan;102327.50;4919585;29;20453;-89
2022/12/28 12:37:55;;;;;;;5.97;1.40;;;;;;;18.91;nan;102318.13;4899223;29;20449;-90
2022/12/28 12:40:58;;;;;;;6.83;1.97;;;;;;;19.00;nan;102316.00;4902002;29;20860;-89
2022/12/28 12:43:57;;;;;;;8.17;1.57;;;;;;;19.05;nan;102318.16;4900834;29;20449;-90
2022/12/28 12:47:16;;;;;;;6.90;1.43;;;;;;;19.13;nan;102307.69;4874185;29;20480;-88
2022/12/28 12:50:23;;;;;;;5.10;1.30;;;;;;;19.21;nan;102299.19;4906116;29;20441;-89
2022/12/28 12:53:02;;;;;;;5.40;1.77;;;;;;;19.27;nan;102301.09;4916948;29;20818;-90
2022/12/28 12:55:56;;;;;;;7.50;1.90;;;;;;;19.35;nan;102294.50;4917430;29;20461;-90
2022/12/28 12:58:55;;;;;;;7.77;1.80;;;;;;;19.43;nan;102290.66;4886561;29;20493;-90
2022/12/28 13:20:39;;;;;;;5.33;1.40;;;;;;;19.69;nan;102254.56;4927173;28;21042;-89
2022/12/28 13:23:27;;;;;;;9.33;1.67;;;;;;;19.82;nan;102250.91;4903363;29;20456;-89
2022/12/28 13:26:21;;;;;;;10.67;1.87;;;;;;;19.91;nan;102267.09;4889935;29;20472;-90
2022/12/28 13:32:47;;;;;;;8.00;1.93;;;;;;;19.98;nan;102231.00;4919393;29;20508;-90
2022/12/28 13:35:28;;;;;;;11.80;1.80;;;;;;;20.09;nan;102223.91;4888487;29;20453;-89
2022/12/28 13:42:15;;;;;;;6.53;1.70;;;;;;;20.22;nan;102234.94;4918202;29;20559;-89
2022/12/28 13:44:49;;;;;;;10.33;1.50;;;;;;;20.36;nan;102247.69;4917076;29;20457;-89
2022/12/28 13:47:42;;;;;;;14.03;1.60;;;;;;;20.43;nan;102256.00;4917335;29;20531;-89
2022/12/28 13:50:28;;;;;;;8.40;1.30;;;;;;;20.38;nan;102237.25;4886589;29;20461;-90
2022/12/28 13:53:34;;;;;;;6.80;1.70;;;;;;;20.48;nan;102236.75;4901581;29;20471;-89
2022/12/28 13:56:21;;;;;;;5.47;1.40;;;;;;;20.51;nan;102237.16;4917427;29;20440;-90
2022/12/28 14:10:46;;;;;;;6.60;1.47;;;;;;;20.54;nan;102239.50;4917922;29;20392;-89
2022/12/28 14:13:16;;;;;;;7.40;1.77;;;;;;;20.45;nan;102214.97;4885922;29;20449;-89
2022/12/28 14:16:01;;;;;;;7.67;1.70;;;;;;;20.51;nan;102214.09;4901971;29;20452;-89
2022/12/28 14:18:32;;;;;;;6.40;1.83;;;;;;;20.62;nan;102230.88;4900726;29;20453;-89
2022/12/28 14:21:01;;;;;;;6.30;1.50;;;;;;;20.51;nan;102206.59;4880160;29;20507;-89
2022/12/28 14:23:29;;;;;;;4.33;1.33;;;;;;;20.65;nan;102232.34;4885705;29;20495;-89
2022/12/28 14:26:02;;;;;;;6.53;1.50;;;;;;;20.57;nan;102207.63;4902430;29;20449;-89
2022/12/28 14:28:43;;;;;;;6.60;1.60;;;;;;;20.56;nan;102201.22;4889364;29;20453;-89
2022/12/28 14:31:34;;;;;;;11.50;1.37;;;;;;;20.50;nan;102207.69;4902860;29;20948;-89
2022/12/28 14:34:04;;;;;;;8.10;1.30;;;;;;;20.56;nan;102212.34;4845889;29;20455;-88
2022/12/28 14:36:46;;;;;;;6.07;1.13;;;;;;;20.51;nan;102198.28;4833925;29;20564;-89
2022/12/28 14:39:33;;;;;;;3.93;1.20;;;;;;;20.69;nan;102208.59;4829957;29;20463;-89
2022/12/28 14:42:02;;;;;;;6.23;1.20;;;;;;;20.67;nan;102208.84;4830568;29;20451;-89
2022/12/28 14:44:39;;;;;;;13.53;1.30;;;;;;;20.64;nan;102216.75;4831075;29;20452;-88